Terminal Aerodrome Forecast
Issued by NWS

Home | Current Version | Previous Version | Text Only | Print | Product List | Glossary On
Versions: 1 2 3 4 5 6 7 8 9 10 11 12 13 14 15 16 17 18 19 20 21 22 23 24 25 26 27 28 29 30 31 32 33 34 35 36 37 38 39 40 41 42 43 44 45 46 47 48 49 50
000
FTUS44 KHGX 181134
TAFIAH
TAF
KIAH 181134Z 1812/1918 VRB04KT P6SM SCT015 OVC100
     FM181500 16008KT P6SM SCT025 BKN250
     FM181900 26009KT P6SM VCTS FEW015 SCT025CB OVC120
     FM190100 VRB04KT P6SM SCT250
     FM190900 VRB03KT 6SM BR SCT015
     FM191500 20007KT P6SM SCT070 BKN250=

USA.gov is the U.S. government's official web portal to all federal, state and local government web resources and services.